CheckWX is a tool to help pilots better visualize weather data.  It is not intended as a substitute for an official pre-flight weather briefing.

00:36:25 UTC

KMWH TAF
Grant Co International Airport
Moses Lake, Washington, USA
KMWH 262323Z 2700/2724 23006KT P6SM SCT250 FM270200 VRB03KT P6SM SCT250 FM270700 01007KT P6SM SCT200 FM271600 02015G22KT P6SM BKN200 FM272000 04015G22KT P6SM BKN100 BKN150

Mar-27@
00:00 UTC

Mar-27 @ 00:00 UTC

Mar-27@
02:00 UTC

Mar-27 @ 02:00 UTC

KMWH 262323Z 2700/2724 23006KT P6SM SCT250
Wind
  • 230° at 6 KTS
Cloud Levels
  • Scattered at 25,000' AGL

Mar-27@
02:00 UTC

Mar-27 @ 02:00 UTC

Mar-27@
07:00 UTC

Mar-27 @ 07:00 UTC

FM270200 VRB03KT P6SM SCT250

From

From Standard forecast or significant change

Wind
  • Variable at 3 KTS
Cloud Levels
  • Scattered at 25,000' AGL

Mar-27@
07:00 UTC

Mar-27 @ 07:00 UTC

Mar-27@
16:00 UTC

Mar-27 @ 16:00 UTC

FM270700 01007KT P6SM SCT200

From

From Standard forecast or significant change

Wind
  • 010° at 7 KTS
Cloud Levels
  • Scattered at 20,000' AGL

Mar-27@
16:00 UTC

Mar-27 @ 16:00 UTC

Mar-27@
20:00 UTC

Mar-27 @ 20:00 UTC

FM271600 02015G22KT P6SM BKN200

From

From Standard forecast or significant change

Wind
  • 020° at 15 KTS
  • {Gusting to 22 KTS
Cloud Levels
  • Broken at 20,000' AGL

Mar-27@
20:00 UTC

Mar-27 @ 20:00 UTC

Mar-28@
00:00 UTC

Mar-28 @ 00:00 UTC

FM272000 04015G22KT P6SM BKN100 BKN150

From

From Standard forecast or significant change

Wind
  • 040° at 15 KTS
  • {Gusting to 22 KTS
Cloud Levels
  • Broken at 10,000' AGL
  • Broken at 15,000' AGL